sensor_id;sensor_type;location;lat;lon;timestamp;P1;durP1;ratioP1;P2;durP2;ratioP2
69358;SDS011;56520;49.066;8.660;2023-05-23T00:01:39;12.30;;;6.05;;
69358;SDS011;56520;49.066;8.660;2023-05-23T00:04:07;12.13;;;5.75;;
69358;SDS011;56520;49.066;8.660;2023-05-23T00:06:33;12.45;;;5.80;;
69358;SDS011;56520;49.066;8.660;2023-05-23T00:09:00;11.20;;;5.15;;
69358;SDS011;56520;49.066;8.660;2023-05-23T00:11:26;10.20;;;5.10;;
69358;SDS011;56520;49.066;8.660;2023-05-23T00:13:53;11.18;;;5.32;;
69358;SDS011;56520;49.066;8.660;2023-05-23T00:16:19;13.80;;;5.93;;
69358;SDS011;56520;49.066;8.660;2023-05-23T00:18:45;20.48;;;7.03;;
69358;SDS011;56520;49.066;8.660;2023-05-23T00:21:11;14.75;;;7.30;;
69358;SDS011;56520;49.066;8.660;2023-05-23T00:23:37;16.85;;;7.63;;
69358;SDS011;56520;49.066;8.660;2023-05-23T00:26:06;16.45;;;8.40;;
69358;SDS011;56520;49.066;8.660;2023-05-23T00:28:32;20.20;;;9.50;;
69358;SDS011;56520;49.066;8.660;2023-05-23T00:30:57;19.63;;;9.32;;
69358;SDS011;56520;49.066;8.660;2023-05-23T00:33:22;18.15;;;9.52;;
69358;SDS011;56520;49.066;8.660;2023-05-23T00:35:48;23.38;;;11.45;;
69358;SDS011;56520;49.066;8.660;2023-05-23T00:38:13;24.85;;;11.90;;
69358;SDS011;56520;49.066;8.660;2023-05-23T00:40:39;25.33;;;11.00;;
69358;SDS011;56520;49.066;8.660;2023-05-23T00:43:05;21.33;;;10.15;;
69358;SDS011;56520;49.066;8.660;2023-05-23T00:45:32;19.58;;;8.30;;
69358;SDS011;56520;49.066;8.660;2023-05-23T00:47:58;19.67;;;9.07;;
69358;SDS011;56520;49.066;8.660;2023-05-23T00:50:24;16.73;;;7.85;;
69358;SDS011;56520;49.066;8.660;2023-05-23T00:52:53;19.85;;;8.98;;
69358;SDS011;56520;49.066;8.660;2023-05-23T00:55:19;16.42;;;8.35;;
69358;SDS011;56520;49.066;8.660;2023-05-23T00:57:44;18.33;;;8.65;;
69358;SDS011;56520;49.066;8.660;2023-05-23T01:00:10;18.80;;;9.05;;
69358;SDS011;56520;49.066;8.660;2023-05-23T01:02:38;19.80;;;9.23;;
69358;SDS011;56520;49.066;8.660;2023-05-23T01:05:07;17.92;;;7.65;;
69358;SDS011;56520;49.066;8.660;2023-05-23T01:07:35;21.00;;;9.48;;
69358;SDS011;56520;49.066;8.660;2023-05-23T01:10:01;20.35;;;9.50;;
69358;SDS011;56520;49.066;8.660;2023-05-23T01:12:29;26.05;;;10.88;;
69358;SDS011;56520;49.066;8.660;2023-05-23T01:15:05;19.98;;;10.77;;
69358;SDS011;56520;49.066;8.660;2023-05-23T01:20:18;23.17;;;10.55;;
69358;SDS011;56520;49.066;8.660;2023-05-23T01:28:09;18.77;;;8.73;;
69358;SDS011;56520;49.066;8.660;2023-05-23T01:30:39;22.77;;;10.40;;
69358;SDS011;56520;49.066;8.660;2023-05-23T01:33:07;20.02;;;9.40;;
69358;SDS011;56520;49.066;8.660;2023-05-23T01:35:35;19.80;;;9.57;;
69358;SDS011;56520;49.066;8.660;2023-05-23T01:38:01;19.20;;;9.23;;
69358;SDS011;56520;49.066;8.660;2023-05-23T01:40:27;20.52;;;9.68;;
69358;SDS011;56520;49.066;8.660;2023-05-23T01:42:53;18.90;;;9.95;;
69358;SDS011;56520;49.066;8.660;2023-05-23T01:45:21;19.95;;;9.65;;
69358;SDS011;56520;49.066;8.660;2023-05-23T01:47:50;21.40;;;9.93;;
69358;SDS011;56520;49.066;8.660;2023-05-23T01:50:17;17.85;;;8.90;;
69358;SDS011;56520;49.066;8.660;2023-05-23T01:52:43;15.38;;;8.13;;
69358;SDS011;56520;49.066;8.660;2023-05-23T01:55:10;16.73;;;9.05;;
69358;SDS011;56520;49.066;8.660;2023-05-23T01:57:38;22.48;;;11.35;;
69358;SDS011;56520;49.066;8.660;2023-05-23T02:00:05;22.38;;;11.40;;
69358;SDS011;56520;49.066;8.660;2023-05-23T02:02:31;19.30;;;10.18;;
69358;SDS011;56520;49.066;8.660;2023-05-23T02:04:58;18.38;;;9.50;;
69358;SDS011;56520;49.066;8.660;2023-05-23T02:07:23;18.90;;;9.13;;
69358;SDS011;56520;49.066;8.660;2023-05-23T02:09:49;22.67;;;11.00;;
69358;SDS011;56520;49.066;8.660;2023-05-23T02:12:14;21.30;;;10.82;;
69358;SDS011;56520;49.066;8.660;2023-05-23T02:14:40;24.65;;;12.40;;
69358;SDS011;56520;49.066;8.660;2023-05-23T02:17:06;24.17;;;12.63;;
69358;SDS011;56520;49.066;8.660;2023-05-23T02:19:34;26.20;;;11.48;;
69358;SDS011;56520;49.066;8.660;2023-05-23T02:22:00;25.55;;;12.05;;
69358;SDS011;56520;49.066;8.660;2023-05-23T02:24:25;25.95;;;13.23;;
69358;SDS011;56520;49.066;8.660;2023-05-23T02:26:50;25.15;;;11.43;;
69358;SDS011;56520;49.066;8.660;2023-05-23T02:29:17;22.80;;;11.25;;
69358;SDS011;56520;49.066;8.660;2023-05-23T02:31:42;21.05;;;10.20;;
69358;SDS011;56520;49.066;8.660;2023-05-23T02:34:08;21.33;;;11.48;;
69358;SDS011;56520;49.066;8.660;2023-05-23T02:36:33;20.52;;;10.30;;
69358;SDS011;56520;49.066;8.660;2023-05-23T02:39:01;18.48;;;8.98;;
69358;SDS011;56520;49.066;8.660;2023-05-23T02:41:27;20.25;;;10.27;;
69358;SDS011;56520;49.066;8.660;2023-05-23T02:43:52;17.63;;;9.23;;
69358;SDS011;56520;49.066;8.660;2023-05-23T02:46:17;17.83;;;9.32;;
69358;SDS011;56520;49.066;8.660;2023-05-23T02:48:43;20.33;;;9.77;;
69358;SDS011;56520;49.066;8.660;2023-05-23T02:51:09;19.10;;;9.88;;
69358;SDS011;56520;49.066;8.660;2023-05-23T02:53:34;21.80;;;11.90;;
69358;SDS011;56520;49.066;8.660;2023-05-23T02:56:00;19.42;;;10.18;;
69358;SDS011;56520;49.066;8.660;2023-05-23T02:58:25;20.15;;;10.02;;
69358;SDS011;56520;49.066;8.660;2023-05-23T03:00:50;17.23;;;8.65;;
69358;SDS011;56520;49.066;8.660;2023-05-23T03:03:16;18.20;;;9.70;;
69358;SDS011;56520;49.066;8.660;2023-05-23T03:05:42;19.75;;;10.82;;
69358;SDS011;56520;49.066;8.660;2023-05-23T03:08:07;18.52;;;9.65;;
69358;SDS011;56520;49.066;8.660;2023-05-23T03:10:33;17.33;;;8.68;;
69358;SDS011;56520;49.066;8.660;2023-05-23T03:12:58;20.73;;;10.50;;
69358;SDS011;56520;49.066;8.660;2023-05-23T03:15:24;19.58;;;9.88;;
69358;SDS011;56520;49.066;8.660;2023-05-23T03:17:49;18.85;;;9.25;;
69358;SDS011;56520;49.066;8.660;2023-05-23T03:20:15;14.02;;;7.20;;
69358;SDS011;56520;49.066;8.660;2023-05-23T03:22:40;15.32;;;7.60;;
69358;SDS011;56520;49.066;8.660;2023-05-23T03:25:07;13.60;;;7.25;;
69358;SDS011;56520;49.066;8.660;2023-05-23T03:27:33;15.10;;;7.90;;
69358;SDS011;56520;49.066;8.660;2023-05-23T03:29:58;13.10;;;6.65;;
69358;SDS011;56520;49.066;8.660;2023-05-23T03:32:24;13.48;;;6.72;;
69358;SDS011;56520;49.066;8.660;2023-05-23T03:34:49;14.82;;;7.55;;
69358;SDS011;56520;49.066;8.660;2023-05-23T03:37:15;12.88;;;6.88;;
69358;SDS011;56520;49.066;8.660;2023-05-23T03:39:40;15.55;;;7.90;;
69358;SDS011;56520;49.066;8.660;2023-05-23T03:42:06;13.25;;;7.20;;
69358;SDS011;56520;49.066;8.660;2023-05-23T03:44:31;12.10;;;5.88;;
69358;SDS011;56520;49.066;8.660;2023-05-23T03:46:56;11.95;;;6.03;;
69358;SDS011;56520;49.066;8.660;2023-05-23T03:49:22;13.80;;;7.25;;
69358;SDS011;56520;49.066;8.660;2023-05-23T03:51:47;12.88;;;6.00;;
69358;SDS011;56520;49.066;8.660;2023-05-23T03:54:13;16.98;;;8.52;;
69358;SDS011;56520;49.066;8.660;2023-05-23T03:56:38;15.65;;;8.93;;
69358;SDS011;56520;49.066;8.660;2023-05-23T03:59:04;14.55;;;7.15;;
69358;SDS011;56520;49.066;8.660;2023-05-23T04:01:29;23.77;;;11.38;;
69358;SDS011;56520;49.066;8.660;2023-05-23T04:03:54;16.90;;;9.32;;
69358;SDS011;56520;49.066;8.660;2023-05-23T04:06:20;20.02;;;10.20;;
69358;SDS011;56520;49.066;8.660;2023-05-23T04:08:46;23.20;;;11.85;;
69358;SDS011;56520;49.066;8.660;2023-05-23T04:11:12;23.77;;;11.75;;
69358;SDS011;56520;49.066;8.660;2023-05-23T04:13:37;22.02;;;12.38;;
69358;SDS011;56520;49.066;8.660;2023-05-23T04:16:03;24.35;;;12.68;;
69358;SDS011;56520;49.066;8.660;2023-05-23T04:18:30;27.02;;;14.18;;
69358;SDS011;56520;49.066;8.660;2023-05-23T04:20:57;22.77;;;12.40;;
69358;SDS011;56520;49.066;8.660;2023-05-23T04:23:23;19.92;;;11.27;;
69358;SDS011;56520;49.066;8.660;2023-05-23T04:25:48;27.23;;;11.82;;
69358;SDS011;56520;49.066;8.660;2023-05-23T04:28:15;21.17;;;11.80;;
69358;SDS011;56520;49.066;8.660;2023-05-23T04:30:41;20.05;;;11.27;;
69358;SDS011;56520;49.066;8.660;2023-05-23T04:33:07;24.75;;;13.48;;
69358;SDS011;56520;49.066;8.660;2023-05-23T04:35:34;26.33;;;13.02;;
69358;SDS011;56520;49.066;8.660;2023-05-23T04:38:03;23.52;;;12.30;;
69358;SDS011;56520;49.066;8.660;2023-05-23T04:40:28;27.25;;;13.43;;
69358;SDS011;56520;49.066;8.660;2023-05-23T04:42:55;23.25;;;13.02;;
69358;SDS011;56520;49.066;8.660;2023-05-23T04:45:20;22.40;;;11.50;;
69358;SDS011;56520;49.066;8.660;2023-05-23T04:47:46;24.38;;;11.52;;
69358;SDS011;56520;49.066;8.660;2023-05-23T04:50:12;22.98;;;11.05;;
69358;SDS011;56520;49.066;8.660;2023-05-23T04:52:40;18.63;;;9.68;;
69358;SDS011;56520;49.066;8.660;2023-05-23T04:55:06;16.58;;;8.65;;
69358;SDS011;56520;49.066;8.660;2023-05-23T04:57:32;22.05;;;11.60;;
69358;SDS011;56520;49.066;8.660;2023-05-23T04:59:58;22.33;;;12.68;;
69358;SDS011;56520;49.066;8.660;2023-05-23T05:02:25;26.00;;;13.70;;
69358;SDS011;56520;49.066;8.660;2023-05-23T05:04:51;22.00;;;11.52;;
69358;SDS011;56520;49.066;8.660;2023-05-23T05:07:16;18.50;;;10.52;;
69358;SDS011;56520;49.066;8.660;2023-05-23T05:09:41;22.40;;;11.82;;
69358;SDS011;56520;49.066;8.660;2023-05-23T05:12:07;18.77;;;10.23;;
69358;SDS011;56520;49.066;8.660;2023-05-23T05:14:32;18.88;;;9.60;;
69358;SDS011;56520;49.066;8.660;2023-05-23T05:16:58;21.80;;;9.75;;
69358;SDS011;56520;49.066;8.660;2023-05-23T05:19:23;23.05;;;11.70;;
69358;SDS011;56520;49.066;8.660;2023-05-23T05:21:49;19.40;;;11.23;;
69358;SDS011;56520;49.066;8.660;2023-05-23T05:24:15;19.17;;;9.95;;
69358;SDS011;56520;49.066;8.660;2023-05-23T05:26:40;19.42;;;10.63;;
69358;SDS011;56520;49.066;8.660;2023-05-23T05:29:06;22.70;;;12.10;;
69358;SDS011;56520;49.066;8.660;2023-05-23T05:31:32;17.98;;;9.45;;
69358;SDS011;56520;49.066;8.660;2023-05-23T05:33:57;17.67;;;8.93;;
69358;SDS011;56520;49.066;8.660;2023-05-23T05:36:25;20.33;;;10.23;;
69358;SDS011;56520;49.066;8.660;2023-05-23T05:38:51;18.70;;;11.05;;
69358;SDS011;56520;49.066;8.660;2023-05-23T05:41:17;20.98;;;11.10;;
69358;SDS011;56520;49.066;8.660;2023-05-23T05:43:42;22.13;;;11.38;;
69358;SDS011;56520;49.066;8.660;2023-05-23T05:46:08;20.85;;;10.50;;
69358;SDS011;56520;49.066;8.660;2023-05-23T05:48:34;18.10;;;10.27;;
69358;SDS011;56520;49.066;8.660;2023-05-23T05:51:00;20.67;;;9.85;;
69358;SDS011;56520;49.066;8.660;2023-05-23T05:53:27;17.77;;;9.07;;
69358;SDS011;56520;49.066;8.660;2023-05-23T05:55:53;21.25;;;10.80;;
69358;SDS011;56520;49.066;8.660;2023-05-23T05:58:18;19.50;;;9.93;;
69358;SDS011;56520;49.066;8.660;2023-05-23T06:00:44;17.50;;;9.77;;
69358;SDS011;56520;49.066;8.660;2023-05-23T06:03:09;25.67;;;10.02;;
69358;SDS011;56520;49.066;8.660;2023-05-23T06:05:36;20.17;;;9.63;;
69358;SDS011;56520;49.066;8.660;2023-05-23T06:08:02;20.13;;;10.45;;
69358;SDS011;56520;49.066;8.660;2023-05-23T06:10:28;21.00;;;9.70;;
69358;SDS011;56520;49.066;8.660;2023-05-23T06:12:54;14.68;;;7.72;;
69358;SDS011;56520;49.066;8.660;2023-05-23T06:15:19;17.50;;;8.55;;
69358;SDS011;56520;49.066;8.660;2023-05-23T06:17:45;17.58;;;9.88;;
69358;SDS011;56520;49.066;8.660;2023-05-23T06:20:10;16.77;;;8.30;;
69358;SDS011;56520;49.066;8.660;2023-05-23T06:22:36;15.63;;;8.60;;
69358;SDS011;56520;49.066;8.660;2023-05-23T06:25:01;17.45;;;9.32;;
69358;SDS011;56520;49.066;8.660;2023-05-23T06:27:27;15.98;;;8.48;;
69358;SDS011;56520;49.066;8.660;2023-05-23T06:29:52;14.20;;;7.63;;
69358;SDS011;56520;49.066;8.660;2023-05-23T06:32:18;14.23;;;6.82;;
69358;SDS011;56520;49.066;8.660;2023-05-23T06:34:43;14.35;;;7.75;;
69358;SDS011;56520;49.066;8.660;2023-05-23T06:37:09;14.80;;;8.32;;
69358;SDS011;56520;49.066;8.660;2023-05-23T06:39:34;15.05;;;8.27;;
69358;SDS011;56520;49.066;8.660;2023-05-23T06:41:59;15.50;;;8.13;;
69358;SDS011;56520;49.066;8.660;2023-05-23T06:44:25;12.98;;;7.43;;
69358;SDS011;56520;49.066;8.660;2023-05-23T06:46:50;16.35;;;7.10;;
69358;SDS011;56520;49.066;8.660;2023-05-23T06:49:21;14.35;;;6.90;;
69358;SDS011;56520;49.066;8.660;2023-05-23T06:51:47;15.75;;;8.10;;
69358;SDS011;56520;49.066;8.660;2023-05-23T06:54:12;15.57;;;7.78;;
69358;SDS011;56520;49.066;8.660;2023-05-23T06:56:37;14.50;;;7.63;;
69358;SDS011;56520;49.066;8.660;2023-05-23T06:59:03;16.52;;;7.07;;
69358;SDS011;56520;49.066;8.660;2023-05-23T07:01:29;13.27;;;7.20;;
69358;SDS011;56520;49.066;8.660;2023-05-23T07:03:54;12.48;;;6.55;;
69358;SDS011;56520;49.066;8.660;2023-05-23T07:06:20;11.43;;;6.72;;
69358;SDS011;56520;49.066;8.660;2023-05-23T07:08:45;12.68;;;6.50;;
69358;SDS011;56520;49.066;8.660;2023-05-23T07:11:11;14.73;;;7.43;;
69358;SDS011;56520;49.066;8.660;2023-05-23T07:13:36;14.75;;;7.20;;
69358;SDS011;56520;49.066;8.660;2023-05-23T07:16:02;13.35;;;7.22;;
69358;SDS011;56520;49.066;8.660;2023-05-23T07:18:27;12.93;;;7.40;;
69358;SDS011;56520;49.066;8.660;2023-05-23T07:20:52;11.35;;;5.88;;
69358;SDS011;56520;49.066;8.660;2023-05-23T07:23:18;11.35;;;6.22;;
69358;SDS011;56520;49.066;8.660;2023-05-23T07:25:43;13.80;;;7.32;;
69358;SDS011;56520;49.066;8.660;2023-05-23T07:28:11;15.00;;;7.57;;
69358;SDS011;56520;49.066;8.660;2023-05-23T07:30:36;14.25;;;7.03;;
69358;SDS011;56520;49.066;8.660;2023-05-23T07:33:02;16.17;;;7.60;;
69358;SDS011;56520;49.066;8.660;2023-05-23T07:35:27;13.15;;;6.45;;
69358;SDS011;56520;49.066;8.660;2023-05-23T07:37:53;15.20;;;7.38;;
69358;SDS011;56520;49.066;8.660;2023-05-23T07:40:19;11.18;;;5.95;;
69358;SDS011;56520;49.066;8.660;2023-05-23T07:42:45;13.90;;;7.28;;
69358;SDS011;56520;49.066;8.660;2023-05-23T07:45:11;12.30;;;6.95;;
69358;SDS011;56520;49.066;8.660;2023-05-23T07:47:36;11.13;;;5.80;;
69358;SDS011;56520;49.066;8.660;2023-05-23T07:50:02;10.75;;;5.97;;
69358;SDS011;56520;49.066;8.660;2023-05-23T07:52:28;10.77;;;5.32;;
69358;SDS011;56520;49.066;8.660;2023-05-23T07:54:54;10.80;;;5.97;;
69358;SDS011;56520;49.066;8.660;2023-05-23T07:57:20;9.60;;;5.15;;
69358;SDS011;56520;49.066;8.660;2023-05-23T07:59:45;11.23;;;5.90;;
69358;SDS011;56520;49.066;8.660;2023-05-23T08:02:11;10.73;;;5.60;;
69358;SDS011;56520;49.066;8.660;2023-05-23T08:04:36;11.50;;;5.18;;
69358;SDS011;56520;49.066;8.660;2023-05-23T08:07:01;10.75;;;5.72;;
69358;SDS011;56520;49.066;8.660;2023-05-23T08:09:29;14.50;;;5.43;;
69358;SDS011;56520;49.066;8.660;2023-05-23T08:11:54;10.43;;;4.85;;
69358;SDS011;56520;49.066;8.660;2023-05-23T08:14:20;10.20;;;4.95;;
69358;SDS011;56520;49.066;8.660;2023-05-23T08:16:46;10.25;;;4.90;;
69358;SDS011;56520;49.066;8.660;2023-05-23T08:19:12;11.77;;;5.05;;
69358;SDS011;56520;49.066;8.660;2023-05-23T08:21:37;10.10;;;4.72;;
69358;SDS011;56520;49.066;8.660;2023-05-23T08:24:02;10.40;;;5.10;;
69358;SDS011;56520;49.066;8.660;2023-05-23T08:26:28;11.10;;;5.90;;
69358;SDS011;56520;49.066;8.660;2023-05-23T08:28:58;10.25;;;5.93;;
69358;SDS011;56520;49.066;8.660;2023-05-23T08:31:28;9.10;;;4.72;;
69358;SDS011;56520;49.066;8.660;2023-05-23T08:33:54;12.30;;;6.45;;
69358;SDS011;56520;49.066;8.660;2023-05-23T08:36:20;11.02;;;5.95;;
69358;SDS011;56520;49.066;8.660;2023-05-23T08:38:45;10.65;;;5.32;;
69358;SDS011;56520;49.066;8.660;2023-05-23T08:41:24;11.18;;;5.03;;
69358;SDS011;56520;49.066;8.660;2023-05-23T08:43:51;10.88;;;5.47;;
69358;SDS011;56520;49.066;8.660;2023-05-23T08:46:16;10.15;;;4.97;;
69358;SDS011;56520;49.066;8.660;2023-05-23T08:48:42;10.55;;;5.20;;
69358;SDS011;56520;49.066;8.660;2023-05-23T08:51:13;9.73;;;4.47;;
69358;SDS011;56520;49.066;8.660;2023-05-23T08:53:40;11.75;;;5.55;;
69358;SDS011;56520;49.066;8.660;2023-05-23T08:56:08;10.05;;;5.00;;
69358;SDS011;56520;49.066;8.660;2023-05-23T08:58:35;9.48;;;5.13;;
69358;SDS011;56520;49.066;8.660;2023-05-23T09:01:00;9.65;;;4.85;;
69358;SDS011;56520;49.066;8.660;2023-05-23T09:03:26;10.38;;;4.53;;
69358;SDS011;56520;49.066;8.660;2023-05-23T09:05:52;11.68;;;4.97;;
69358;SDS011;56520;49.066;8.660;2023-05-23T09:08:19;9.98;;;5.00;;
69358;SDS011;56520;49.066;8.660;2023-05-23T09:10:45;9.68;;;4.60;;
69358;SDS011;56520;49.066;8.660;2023-05-23T09:13:13;10.35;;;4.72;;
69358;SDS011;56520;49.066;8.660;2023-05-23T09:15:54;8.10;;;3.88;;
69358;SDS011;56520;49.066;8.660;2023-05-23T09:18:21;8.70;;;4.40;;
69358;SDS011;56520;49.066;8.660;2023-05-23T09:20:49;9.00;;;4.38;;
69358;SDS011;56520;49.066;8.660;2023-05-23T09:23:15;13.88;;;4.50;;
69358;SDS011;56520;49.066;8.660;2023-05-23T09:25:47;9.60;;;4.32;;
69358;SDS011;56520;49.066;8.660;2023-05-23T09:28:12;9.43;;;4.32;;
69358;SDS011;56520;49.066;8.660;2023-05-23T09:30:38;8.38;;;3.95;;
69358;SDS011;56520;49.066;8.660;2023-05-23T09:33:03;7.80;;;4.10;;
69358;SDS011;56520;49.066;8.660;2023-05-23T09:35:29;8.00;;;3.90;;
69358;SDS011;56520;49.066;8.660;2023-05-23T09:37:56;7.90;;;3.55;;
69358;SDS011;56520;49.066;8.660;2023-05-23T09:40:29;8.40;;;3.67;;
69358;SDS011;56520;49.066;8.660;2023-05-23T09:43:04;6.90;;;3.25;;
69358;SDS011;56520;49.066;8.660;2023-05-23T09:45:31;8.90;;;3.58;;
69358;SDS011;56520;49.066;8.660;2023-05-23T09:47:58;7.47;;;3.17;;
69358;SDS011;56520;49.066;8.660;2023-05-23T09:50:25;7.40;;;3.40;;
69358;SDS011;56520;49.066;8.660;2023-05-23T09:52:56;8.80;;;3.10;;
69358;SDS011;56520;49.066;8.660;2023-05-23T09:55:21;8.00;;;3.50;;
69358;SDS011;56520;49.066;8.660;2023-05-23T09:57:47;7.68;;;3.35;;
69358;SDS011;56520;49.066;8.660;2023-05-23T10:00:17;7.05;;;3.13;;
69358;SDS011;56520;49.066;8.660;2023-05-23T10:03:04;6.57;;;2.90;;
69358;SDS011;56520;49.066;8.660;2023-05-23T10:08:10;8.27;;;2.88;;
69358;SDS011;56520;49.066;8.660;2023-05-23T10:13:21;6.10;;;2.25;;
69358;SDS011;56520;49.066;8.660;2023-05-23T10:15:51;6.55;;;3.13;;
69358;SDS011;56520;49.066;8.660;2023-05-23T10:18:24;5.80;;;2.45;;
69358;SDS011;56520;49.066;8.660;2023-05-23T10:20:53;7.22;;;2.50;;
69358;SDS011;56520;49.066;8.660;2023-05-23T10:23:25;6.63;;;2.60;;
69358;SDS011;56520;49.066;8.660;2023-05-23T10:25:52;6.15;;;2.40;;
69358;SDS011;56520;49.066;8.660;2023-05-23T10:28:18;6.82;;;2.45;;
69358;SDS011;56520;49.066;8.660;2023-05-23T10:30:44;6.18;;;2.55;;
69358;SDS011;56520;49.066;8.660;2023-05-23T10:33:10;6.88;;;2.72;;
69358;SDS011;56520;49.066;8.660;2023-05-23T10:41:12;6.72;;;3.00;;
69358;SDS011;56520;49.066;8.660;2023-05-23T10:52:09;5.10;;;2.03;;
69358;SDS011;56520;49.066;8.660;2023-05-23T10:54:36;6.25;;;2.70;;
69358;SDS011;56520;49.066;8.660;2023-05-23T10:57:11;5.93;;;2.40;;
69358;SDS011;56520;49.066;8.660;2023-05-23T10:59:40;5.30;;;2.20;;
69358;SDS011;56520;49.066;8.660;2023-05-23T11:02:11;5.47;;;2.22;;
69358;SDS011;56520;49.066;8.660;2023-05-23T11:04:38;5.85;;;2.10;;
69358;SDS011;56520;49.066;8.660;2023-05-23T11:10:11;5.75;;;2.67;;
69358;SDS011;56520;49.066;8.660;2023-05-23T11:12:41;5.07;;;2.05;;
69358;SDS011;56520;49.066;8.660;2023-05-23T11:17:48;5.30;;;2.10;;
69358;SDS011;56520;49.066;8.660;2023-05-23T11:20:15;5.55;;;2.10;;
69358;SDS011;56520;49.066;8.660;2023-05-23T11:23:08;6.13;;;2.15;;
69358;SDS011;56520;49.066;8.660;2023-05-23T11:28:27;5.40;;;2.08;;
69358;SDS011;56520;49.066;8.660;2023-05-23T11:30:53;6.50;;;2.60;;
69358;SDS011;56520;49.066;8.660;2023-05-23T11:33:21;4.70;;;1.90;;
69358;SDS011;56520;49.066;8.660;2023-05-23T11:35:47;5.30;;;1.92;;
69358;SDS011;56520;49.066;8.660;2023-05-23T11:38:14;5.10;;;2.15;;
69358;SDS011;56520;49.066;8.660;2023-05-23T11:40:41;5.75;;;2.28;;
69358;SDS011;56520;49.066;8.660;2023-05-23T11:43:12;5.55;;;2.15;;
69358;SDS011;56520;49.066;8.660;2023-05-23T11:45:39;5.53;;;1.85;;
69358;SDS011;56520;49.066;8.660;2023-05-23T11:48:12;6.55;;;2.10;;
69358;SDS011;56520;49.066;8.660;2023-05-23T11:53:16;6.18;;;1.88;;
69358;SDS011;56520;49.066;8.660;2023-05-23T11:55:51;4.97;;;1.55;;
69358;SDS011;56520;49.066;8.660;2023-05-23T11:58:22;4.95;;;1.98;;
69358;SDS011;56520;49.066;8.660;2023-05-23T12:00:50;4.88;;;1.80;;
69358;SDS011;56520;49.066;8.660;2023-05-23T12:03:16;5.07;;;2.10;;
69358;SDS011;56520;49.066;8.660;2023-05-23T12:05:42;5.40;;;2.15;;
69358;SDS011;56520;49.066;8.660;2023-05-23T12:08:09;5.53;;;2.10;;
69358;SDS011;56520;49.066;8.660;2023-05-23T12:10:36;5.35;;;1.80;;
69358;SDS011;56520;49.066;8.660;2023-05-23T12:13:01;5.00;;;2.03;;
69358;SDS011;56520;49.066;8.660;2023-05-23T12:15:26;4.95;;;2.05;;
69358;SDS011;56520;49.066;8.660;2023-05-23T12:17:54;6.80;;;1.88;;
69358;SDS011;56520;49.066;8.660;2023-05-23T12:20:20;7.75;;;2.40;;
69358;SDS011;56520;49.066;8.660;2023-05-23T12:22:46;5.80;;;2.10;;
69358;SDS011;56520;49.066;8.660;2023-05-23T12:25:12;7.30;;;2.35;;
69358;SDS011;56520;49.066;8.660;2023-05-23T12:27:38;5.10;;;1.90;;
69358;SDS011;56520;49.066;8.660;2023-05-23T12:30:09;4.47;;;1.50;;
69358;SDS011;56520;49.066;8.660;2023-05-23T12:32:40;4.60;;;1.92;;
69358;SDS011;56520;49.066;8.660;2023-05-23T12:35:10;4.45;;;1.58;;
69358;SDS011;56520;49.066;8.660;2023-05-23T12:37:43;4.82;;;2.17;;
69358;SDS011;56520;49.066;8.660;2023-05-23T12:40:15;5.13;;;2.00;;
69358;SDS011;56520;49.066;8.660;2023-05-23T12:42:47;4.43;;;1.77;;
69358;SDS011;56520;49.066;8.660;2023-05-23T12:47:39;5.35;;;2.00;;
69358;SDS011;56520;49.066;8.660;2023-05-23T12:50:05;5.22;;;2.35;;
69358;SDS011;56520;49.066;8.660;2023-05-23T12:52:30;5.13;;;2.22;;
69358;SDS011;56520;49.066;8.660;2023-05-23T12:54:56;5.03;;;1.90;;
69358;SDS011;56520;49.066;8.660;2023-05-23T12:57:21;5.30;;;2.13;;
69358;SDS011;56520;49.066;8.660;2023-05-23T12:59:47;5.47;;;2.60;;
69358;SDS011;56520;49.066;8.660;2023-05-23T13:02:12;6.13;;;2.72;;
69358;SDS011;56520;49.066;8.660;2023-05-23T13:04:37;6.90;;;2.45;;
69358;SDS011;56520;49.066;8.660;2023-05-23T13:07:03;5.15;;;2.00;;
69358;SDS011;56520;49.066;8.660;2023-05-23T13:09:28;5.57;;;2.15;;
69358;SDS011;56520;49.066;8.660;2023-05-23T13:11:54;5.07;;;2.00;;
69358;SDS011;56520;49.066;8.660;2023-05-23T13:14:19;5.40;;;2.10;;
69358;SDS011;56520;49.066;8.660;2023-05-23T13:16:45;5.85;;;2.10;;
69358;SDS011;56520;49.066;8.660;2023-05-23T13:19:10;5.90;;;2.42;;
69358;SDS011;56520;49.066;8.660;2023-05-23T13:21:36;4.97;;;2.05;;
69358;SDS011;56520;49.066;8.660;2023-05-23T13:24:01;6.10;;;2.40;;
69358;SDS011;56520;49.066;8.660;2023-05-23T13:26:27;6.43;;;2.30;;
69358;SDS011;56520;49.066;8.660;2023-05-23T13:28:52;4.90;;;1.80;;
69358;SDS011;56520;49.066;8.660;2023-05-23T13:31:18;5.15;;;2.13;;
69358;SDS011;56520;49.066;8.660;2023-05-23T13:33:43;5.55;;;2.47;;
69358;SDS011;56520;49.066;8.660;2023-05-23T13:36:09;5.90;;;2.08;;
69358;SDS011;56520;49.066;8.660;2023-05-23T13:38:34;4.95;;;2.10;;
69358;SDS011;56520;49.066;8.660;2023-05-23T13:40:59;7.00;;;2.25;;
69358;SDS011;56520;49.066;8.660;2023-05-23T13:43:25;4.97;;;2.20;;
69358;SDS011;56520;49.066;8.660;2023-05-23T13:45:50;6.82;;;2.38;;
69358;SDS011;56520;49.066;8.660;2023-05-23T13:48:16;6.20;;;2.80;;
69358;SDS011;56520;49.066;8.660;2023-05-23T13:50:42;6.97;;;3.38;;
69358;SDS011;56520;49.066;8.660;2023-05-23T13:53:07;6.07;;;2.50;;
69358;SDS011;56520;49.066;8.660;2023-05-23T13:55:38;7.75;;;2.75;;
69358;SDS011;56520;49.066;8.660;2023-05-23T13:58:04;6.75;;;2.95;;
69358;SDS011;56520;49.066;8.660;2023-05-23T14:00:29;6.55;;;3.10;;
69358;SDS011;56520;49.066;8.660;2023-05-23T14:02:55;5.75;;;2.28;;
69358;SDS011;56520;49.066;8.660;2023-05-23T14:05:20;6.75;;;2.50;;
69358;SDS011;56520;49.066;8.660;2023-05-23T14:07:46;7.72;;;2.90;;
69358;SDS011;56520;49.066;8.660;2023-05-23T14:10:12;6.35;;;2.80;;
69358;SDS011;56520;49.066;8.660;2023-05-23T14:12:38;6.70;;;2.72;;
69358;SDS011;56520;49.066;8.660;2023-05-23T14:15:04;6.65;;;2.42;;
69358;SDS011;56520;49.066;8.660;2023-05-23T14:17:29;6.70;;;3.00;;
69358;SDS011;56520;49.066;8.660;2023-05-23T14:19:55;7.20;;;3.35;;
69358;SDS011;56520;49.066;8.660;2023-05-23T14:22:20;6.40;;;3.05;;
69358;SDS011;56520;49.066;8.660;2023-05-23T14:24:45;8.40;;;3.03;;
69358;SDS011;56520;49.066;8.660;2023-05-23T14:27:11;7.05;;;2.65;;
69358;SDS011;56520;49.066;8.660;2023-05-23T14:29:36;7.32;;;3.10;;
69358;SDS011;56520;49.066;8.660;2023-05-23T14:32:02;6.03;;;2.80;;
69358;SDS011;56520;49.066;8.660;2023-05-23T14:34:28;8.38;;;3.03;;
69358;SDS011;56520;49.066;8.660;2023-05-23T14:36:54;7.15;;;3.25;;
69358;SDS011;56520;49.066;8.660;2023-05-23T14:39:19;6.72;;;2.83;;
69358;SDS011;56520;49.066;8.660;2023-05-23T14:41:45;6.63;;;3.08;;
69358;SDS011;56520;49.066;8.660;2023-05-23T14:44:12;6.40;;;2.92;;
69358;SDS011;56520;49.066;8.660;2023-05-23T14:46:37;5.95;;;2.80;;
69358;SDS011;56520;49.066;8.660;2023-05-23T14:49:03;6.60;;;3.20;;
69358;SDS011;56520;49.066;8.660;2023-05-23T14:51:28;8.43;;;3.50;;
69358;SDS011;56520;49.066;8.660;2023-05-23T14:53:54;6.47;;;3.20;;
69358;SDS011;56520;49.066;8.660;2023-05-23T14:56:19;5.90;;;2.80;;
69358;SDS011;56520;49.066;8.660;2023-05-23T14:58:44;6.35;;;3.17;;
69358;SDS011;56520;49.066;8.660;2023-05-23T15:01:11;7.40;;;3.28;;
69358;SDS011;56520;49.066;8.660;2023-05-23T15:03:37;8.35;;;3.38;;
69358;SDS011;56520;49.066;8.660;2023-05-23T15:06:03;8.70;;;3.10;;
69358;SDS011;56520;49.066;8.660;2023-05-23T15:08:30;7.60;;;3.53;;
69358;SDS011;56520;49.066;8.660;2023-05-23T15:10:55;8.27;;;3.47;;
69358;SDS011;56520;49.066;8.660;2023-05-23T15:13:21;8.02;;;3.90;;
69358;SDS011;56520;49.066;8.660;2023-05-23T15:15:46;7.40;;;3.45;;